sensor_id;sensor_type;location;lat;lon;timestamp;P1;durP1;ratioP1;P2;durP2;ratioP2
59239;SDS011;45010;53.640;10.578;2023-03-02T00:01:13;0.77;;;0.60;;
59239;SDS011;45010;53.640;10.578;2023-03-02T00:04:22;0.90;;;0.55;;
59239;SDS011;45010;53.640;10.578;2023-03-02T00:07:27;0.85;;;0.50;;
59239;SDS011;45010;53.640;10.578;2023-03-02T00:10:31;0.77;;;0.57;;
59239;SDS011;45010;53.640;10.578;2023-03-02T00:13:31;0.70;;;0.50;;
59239;SDS011;45010;53.640;10.578;2023-03-02T00:16:34;0.60;;;0.50;;
59239;SDS011;45010;53.640;10.578;2023-03-02T00:19:34;0.50;;;0.50;;
59239;SDS011;45010;53.640;10.578;2023-03-02T00:22:39;1.00;;;0.70;;
59239;SDS011;45010;53.640;10.578;2023-03-02T00:25:41;0.60;;;0.60;;
59239;SDS011;45010;53.640;10.578;2023-03-02T00:28:41;0.63;;;0.60;;
59239;SDS011;45010;53.640;10.578;2023-03-02T00:31:42;0.68;;;0.47;;
59239;SDS011;45010;53.640;10.578;2023-03-02T00:34:42;0.50;;;0.50;;
59239;SDS011;45010;53.640;10.578;2023-03-02T00:37:43;0.55;;;0.50;;
59239;SDS011;45010;53.640;10.578;2023-03-02T00:40:43;0.63;;;0.60;;
59239;SDS011;45010;53.640;10.578;2023-03-02T00:43:45;0.60;;;0.50;;
59239;SDS011;45010;53.640;10.578;2023-03-02T00:46:46;0.47;;;0.40;;
59239;SDS011;45010;53.640;10.578;2023-03-02T00:49:46;0.68;;;0.50;;
59239;SDS011;45010;53.640;10.578;2023-03-02T00:52:48;0.40;;;0.40;;
59239;SDS011;45010;53.640;10.578;2023-03-02T00:55:54;0.52;;;0.50;;
59239;SDS011;45010;53.640;10.578;2023-03-02T00:58:54;0.60;;;0.50;;
59239;SDS011;45010;53.640;10.578;2023-03-02T01:01:56;0.60;;;0.60;;
59239;SDS011;45010;53.640;10.578;2023-03-02T01:04:58;0.60;;;0.50;;
59239;SDS011;45010;53.640;10.578;2023-03-02T01:07:58;0.63;;;0.57;;
59239;SDS011;45010;53.640;10.578;2023-03-02T01:10:58;0.43;;;0.40;;
59239;SDS011;45010;53.640;10.578;2023-03-02T01:14:00;0.70;;;0.70;;
59239;SDS011;45010;53.640;10.578;2023-03-02T01:17:01;0.63;;;0.52;;
59239;SDS011;45010;53.640;10.578;2023-03-02T01:20:03;1.05;;;0.40;;
59239;SDS011;45010;53.640;10.578;2023-03-02T01:23:04;0.57;;;0.40;;
59239;SDS011;45010;53.640;10.578;2023-03-02T01:26:05;0.50;;;0.50;;
59239;SDS011;45010;53.640;10.578;2023-03-02T01:29:06;0.45;;;0.40;;
59239;SDS011;45010;53.640;10.578;2023-03-02T01:32:06;0.70;;;0.40;;
59239;SDS011;45010;53.640;10.578;2023-03-02T01:35:07;0.40;;;0.40;;
59239;SDS011;45010;53.640;10.578;2023-03-02T01:38:08;0.30;;;0.30;;
59239;SDS011;45010;53.640;10.578;2023-03-02T01:41:09;0.47;;;0.47;;
59239;SDS011;45010;53.640;10.578;2023-03-02T01:47:37;0.40;;;0.40;;
59239;SDS011;45010;53.640;10.578;2023-03-02T01:50:38;1.23;;;0.40;;
59239;SDS011;45010;53.640;10.578;2023-03-02T01:53:39;0.52;;;0.52;;
59239;SDS011;45010;53.640;10.578;2023-03-02T01:56:45;0.40;;;0.38;;
59239;SDS011;45010;53.640;10.578;2023-03-02T01:59:46;0.50;;;0.40;;
59239;SDS011;45010;53.640;10.578;2023-03-02T02:02:47;0.70;;;0.60;;
59239;SDS011;45010;53.640;10.578;2023-03-02T02:06:00;0.45;;;0.45;;
59239;SDS011;45010;53.640;10.578;2023-03-02T02:09:08;0.40;;;0.40;;
59239;SDS011;45010;53.640;10.578;2023-03-02T02:12:13;0.50;;;0.50;;
59239;SDS011;45010;53.640;10.578;2023-03-02T02:15:15;0.57;;;0.57;;
59239;SDS011;45010;53.640;10.578;2023-03-02T02:18:15;0.80;;;0.40;;
59239;SDS011;45010;53.640;10.578;2023-03-02T02:21:16;0.60;;;0.60;;
59239;SDS011;45010;53.640;10.578;2023-03-02T02:24:20;0.50;;;0.50;;
59239;SDS011;45010;53.640;10.578;2023-03-02T02:27:28;0.63;;;0.40;;
59239;SDS011;45010;53.640;10.578;2023-03-02T02:30:33;0.60;;;0.50;;
59239;SDS011;45010;53.640;10.578;2023-03-02T02:33:35;0.50;;;0.50;;
59239;SDS011;45010;53.640;10.578;2023-03-02T02:36:38;0.50;;;0.40;;
59239;SDS011;45010;53.640;10.578;2023-03-02T02:39:43;0.65;;;0.55;;
59239;SDS011;45010;53.640;10.578;2023-03-02T02:42:47;0.50;;;0.50;;
59239;SDS011;45010;53.640;10.578;2023-03-02T02:45:51;0.50;;;0.50;;
59239;SDS011;45010;53.640;10.578;2023-03-02T02:48:54;0.50;;;0.50;;
59239;SDS011;45010;53.640;10.578;2023-03-02T02:51:54;0.60;;;0.60;;
59239;SDS011;45010;53.640;10.578;2023-03-02T02:54:55;0.70;;;0.47;;
59239;SDS011;45010;53.640;10.578;2023-03-02T02:57:57;0.70;;;0.70;;
59239;SDS011;45010;53.640;10.578;2023-03-02T03:01:01;0.50;;;0.50;;
59239;SDS011;45010;53.640;10.578;2023-03-02T03:04:02;0.63;;;0.52;;
59239;SDS011;45010;53.640;10.578;2023-03-02T03:07:04;0.45;;;0.45;;
59239;SDS011;45010;53.640;10.578;2023-03-02T03:13:22;0.45;;;0.45;;
59239;SDS011;45010;53.640;10.578;2023-03-02T03:16:23;1.42;;;0.40;;
59239;SDS011;45010;53.640;10.578;2023-03-02T03:19:28;0.40;;;0.40;;
59239;SDS011;45010;53.640;10.578;2023-03-02T03:22:31;0.40;;;0.40;;
59239;SDS011;45010;53.640;10.578;2023-03-02T03:25:33;0.40;;;0.40;;
59239;SDS011;45010;53.640;10.578;2023-03-02T03:28:34;0.55;;;0.50;;
59239;SDS011;45010;53.640;10.578;2023-03-02T03:31:34;0.40;;;0.40;;
59239;SDS011;45010;53.640;10.578;2023-03-02T03:34:35;0.60;;;0.45;;
59239;SDS011;45010;53.640;10.578;2023-03-02T03:37:40;0.40;;;0.40;;
59239;SDS011;45010;53.640;10.578;2023-03-02T03:40:41;0.50;;;0.40;;
59239;SDS011;45010;53.640;10.578;2023-03-02T03:43:41;0.50;;;0.50;;
59239;SDS011;45010;53.640;10.578;2023-03-02T03:46:42;0.63;;;0.50;;
59239;SDS011;45010;53.640;10.578;2023-03-02T03:49:42;0.50;;;0.40;;
59239;SDS011;45010;53.640;10.578;2023-03-02T03:52:43;0.32;;;0.32;;
59239;SDS011;45010;53.640;10.578;2023-03-02T03:55:43;0.30;;;0.30;;
59239;SDS011;45010;53.640;10.578;2023-03-02T03:58:43;0.43;;;0.43;;
59239;SDS011;45010;53.640;10.578;2023-03-02T04:01:46;0.45;;;0.38;;
59239;SDS011;45010;53.640;10.578;2023-03-02T04:04:55;0.40;;;0.40;;
59239;SDS011;45010;53.640;10.578;2023-03-02T04:07:55;0.30;;;0.30;;
59239;SDS011;45010;53.640;10.578;2023-03-02T04:10:55;0.52;;;0.50;;
59239;SDS011;45010;53.640;10.578;2023-03-02T04:13:56;0.40;;;0.32;;
59239;SDS011;45010;53.640;10.578;2023-03-02T04:16:57;0.30;;;0.30;;
59239;SDS011;45010;53.640;10.578;2023-03-02T04:19:57;0.40;;;0.35;;
59239;SDS011;45010;53.640;10.578;2023-03-02T04:22:58;0.30;;;0.30;;
59239;SDS011;45010;53.640;10.578;2023-03-02T04:25:58;0.45;;;0.40;;
59239;SDS011;45010;53.640;10.578;2023-03-02T04:29:04;0.30;;;0.30;;
59239;SDS011;45010;53.640;10.578;2023-03-02T04:32:05;0.50;;;0.38;;
59239;SDS011;45010;53.640;10.578;2023-03-02T04:35:06;0.40;;;0.40;;
59239;SDS011;45010;53.640;10.578;2023-03-02T04:38:06;0.52;;;0.40;;
59239;SDS011;45010;53.640;10.578;2023-03-02T04:41:07;0.50;;;0.40;;
59239;SDS011;45010;53.640;10.578;2023-03-02T04:44:07;0.40;;;0.40;;
59239;SDS011;45010;53.640;10.578;2023-03-02T04:47:08;0.32;;;0.32;;
59239;SDS011;45010;53.640;10.578;2023-03-02T04:50:10;0.50;;;0.40;;
59239;SDS011;45010;53.640;10.578;2023-03-02T04:53:12;0.30;;;0.30;;
59239;SDS011;45010;53.640;10.578;2023-03-02T04:56:12;0.30;;;0.30;;
59239;SDS011;45010;53.640;10.578;2023-03-02T04:59:14;0.30;;;0.30;;
59239;SDS011;45010;53.640;10.578;2023-03-02T05:02:15;0.40;;;0.40;;
59239;SDS011;45010;53.640;10.578;2023-03-02T05:05:16;0.30;;;0.30;;
59239;SDS011;45010;53.640;10.578;2023-03-02T05:08:19;0.20;;;0.20;;
59239;SDS011;45010;53.640;10.578;2023-03-02T05:11:19;0.30;;;0.30;;
59239;SDS011;45010;53.640;10.578;2023-03-02T05:14:25;0.30;;;0.30;;
59239;SDS011;45010;53.640;10.578;2023-03-02T05:17:26;0.30;;;0.30;;
59239;SDS011;45010;53.640;10.578;2023-03-02T05:20:26;0.38;;;0.38;;
59239;SDS011;45010;53.640;10.578;2023-03-02T05:23:29;0.40;;;0.40;;
59239;SDS011;45010;53.640;10.578;2023-03-02T05:26:30;0.35;;;0.32;;
59239;SDS011;45010;53.640;10.578;2023-03-02T05:29:31;0.30;;;0.20;;
59239;SDS011;45010;53.640;10.578;2023-03-02T05:32:31;0.45;;;0.30;;
59239;SDS011;45010;53.640;10.578;2023-03-02T05:35:31;0.45;;;0.43;;
59239;SDS011;45010;53.640;10.578;2023-03-02T05:38:32;0.20;;;0.20;;
59239;SDS011;45010;53.640;10.578;2023-03-02T05:41:33;0.35;;;0.30;;
59239;SDS011;45010;53.640;10.578;2023-03-02T05:44:34;0.30;;;0.30;;
59239;SDS011;45010;53.640;10.578;2023-03-02T05:47:35;0.35;;;0.20;;
59239;SDS011;45010;53.640;10.578;2023-03-02T05:50:35;0.30;;;0.30;;
59239;SDS011;45010;53.640;10.578;2023-03-02T05:53:35;0.40;;;0.40;;
59239;SDS011;45010;53.640;10.578;2023-03-02T05:56:36;0.85;;;0.20;;
59239;SDS011;45010;53.640;10.578;2023-03-02T05:59:36;0.40;;;0.28;;
59239;SDS011;45010;53.640;10.578;2023-03-02T06:02:37;0.25;;;0.25;;
59239;SDS011;45010;53.640;10.578;2023-03-02T06:05:38;1.10;;;0.40;;
59239;SDS011;45010;53.640;10.578;2023-03-02T06:08:38;0.30;;;0.30;;
59239;SDS011;45010;53.640;10.578;2023-03-02T06:11:40;0.30;;;0.30;;
59239;SDS011;45010;53.640;10.578;2023-03-02T06:14:40;0.30;;;0.30;;
59239;SDS011;45010;53.640;10.578;2023-03-02T06:17:40;0.30;;;0.30;;
59239;SDS011;45010;53.640;10.578;2023-03-02T06:20:41;0.50;;;0.30;;
59239;SDS011;45010;53.640;10.578;2023-03-02T06:23:41;0.47;;;0.40;;
59239;SDS011;45010;53.640;10.578;2023-03-02T06:26:41;0.50;;;0.30;;
59239;SDS011;45010;53.640;10.578;2023-03-02T06:29:42;0.22;;;0.22;;
59239;SDS011;45010;53.640;10.578;2023-03-02T06:32:42;0.63;;;0.30;;
59239;SDS011;45010;53.640;10.578;2023-03-02T06:35:43;0.25;;;0.25;;
59239;SDS011;45010;53.640;10.578;2023-03-02T06:38:44;0.50;;;0.30;;
59239;SDS011;45010;53.640;10.578;2023-03-02T06:41:44;0.60;;;0.30;;
59239;SDS011;45010;53.640;10.578;2023-03-02T06:44:45;0.30;;;0.30;;
59239;SDS011;45010;53.640;10.578;2023-03-02T06:47:45;0.32;;;0.30;;
59239;SDS011;45010;53.640;10.578;2023-03-02T06:50:46;0.93;;;0.30;;
59239;SDS011;45010;53.640;10.578;2023-03-02T06:53:46;0.63;;;0.43;;
59239;SDS011;45010;53.640;10.578;2023-03-02T06:56:46;0.50;;;0.32;;
59239;SDS011;45010;53.640;10.578;2023-03-02T06:59:47;0.80;;;0.47;;
59239;SDS011;45010;53.640;10.578;2023-03-02T07:02:47;1.65;;;0.40;;
59239;SDS011;45010;53.640;10.578;2023-03-02T07:05:49;0.77;;;0.32;;
59239;SDS011;45010;53.640;10.578;2023-03-02T07:08:50;1.88;;;0.30;;
59239;SDS011;45010;53.640;10.578;2023-03-02T07:11:51;0.50;;;0.40;;
59239;SDS011;45010;53.640;10.578;2023-03-02T07:14:51;1.10;;;0.35;;
59239;SDS011;45010;53.640;10.578;2023-03-02T07:17:52;1.45;;;0.45;;
59239;SDS011;45010;53.640;10.578;2023-03-02T07:20:53;2.30;;;0.40;;
59239;SDS011;45010;53.640;10.578;2023-03-02T07:23:53;3.33;;;0.60;;
59239;SDS011;45010;53.640;10.578;2023-03-02T07:26:53;0.60;;;0.47;;
59239;SDS011;45010;53.640;10.578;2023-03-02T07:29:54;1.55;;;0.60;;
59239;SDS011;45010;53.640;10.578;2023-03-02T07:32:54;4.25;;;0.90;;
59239;SDS011;45010;53.640;10.578;2023-03-02T07:35:54;1.08;;;0.55;;
59239;SDS011;45010;53.640;10.578;2023-03-02T07:38:55;3.70;;;0.65;;
59239;SDS011;45010;53.640;10.578;2023-03-02T07:41:58;0.95;;;0.60;;
59239;SDS011;45010;53.640;10.578;2023-03-02T07:45:00;2.20;;;1.08;;
59239;SDS011;45010;53.640;10.578;2023-03-02T07:48:00;0.90;;;0.50;;
59239;SDS011;45010;53.640;10.578;2023-03-02T07:51:01;2.88;;;0.60;;
59239;SDS011;45010;53.640;10.578;2023-03-02T07:54:03;0.82;;;0.43;;
59239;SDS011;45010;53.640;10.578;2023-03-02T07:57:04;1.73;;;0.55;;
59239;SDS011;45010;53.640;10.578;2023-03-02T08:00:04;2.10;;;0.50;;
59239;SDS011;45010;53.640;10.578;2023-03-02T08:03:05;1.55;;;0.82;;
59239;SDS011;45010;53.640;10.578;2023-03-02T08:06:06;2.88;;;0.73;;
59239;SDS011;45010;53.640;10.578;2023-03-02T08:09:08;1.60;;;0.60;;
59239;SDS011;45010;53.640;10.578;2023-03-02T08:12:08;1.80;;;0.50;;
59239;SDS011;45010;53.640;10.578;2023-03-02T08:15:09;0.65;;;0.50;;
59239;SDS011;45010;53.640;10.578;2023-03-02T08:18:10;0.68;;;0.40;;
59239;SDS011;45010;53.640;10.578;2023-03-02T08:21:12;1.55;;;0.52;;
59239;SDS011;45010;53.640;10.578;2023-03-02T08:24:13;2.58;;;0.88;;
59239;SDS011;45010;53.640;10.578;2023-03-02T08:27:14;3.75;;;0.40;;
59239;SDS011;45010;53.640;10.578;2023-03-02T08:30:14;0.88;;;0.60;;
59239;SDS011;45010;53.640;10.578;2023-03-02T08:33:15;1.55;;;0.52;;
59239;SDS011;45010;53.640;10.578;2023-03-02T08:36:16;2.58;;;0.50;;
59239;SDS011;45010;53.640;10.578;2023-03-02T08:39:18;3.95;;;0.63;;
59239;SDS011;45010;53.640;10.578;2023-03-02T08:42:21;2.47;;;0.65;;
59239;SDS011;45010;53.640;10.578;2023-03-02T08:45:22;1.98;;;0.80;;
59239;SDS011;45010;53.640;10.578;2023-03-02T08:48:23;3.83;;;1.00;;
59239;SDS011;45010;53.640;10.578;2023-03-02T08:51:24;1.90;;;0.70;;
59239;SDS011;45010;53.640;10.578;2023-03-02T08:54:25;3.95;;;0.70;;
59239;SDS011;45010;53.640;10.578;2023-03-02T08:57:26;3.75;;;1.10;;
59239;SDS011;45010;53.640;10.578;2023-03-02T09:00:26;3.65;;;1.45;;
59239;SDS011;45010;53.640;10.578;2023-03-02T09:03:26;11.32;;;3.17;;
59239;SDS011;45010;53.640;10.578;2023-03-02T09:06:28;7.20;;;1.90;;
59239;SDS011;45010;53.640;10.578;2023-03-02T09:09:29;3.80;;;1.50;;
59239;SDS011;45010;53.640;10.578;2023-03-02T09:12:30;6.85;;;1.90;;
59239;SDS011;45010;53.640;10.578;2023-03-02T09:15:30;4.65;;;1.40;;
59239;SDS011;45010;53.640;10.578;2023-03-02T09:18:30;3.85;;;1.35;;
59239;SDS011;45010;53.640;10.578;2023-03-02T09:21:31;4.68;;;1.30;;
59239;SDS011;45010;53.640;10.578;2023-03-02T09:24:31;3.50;;;0.98;;
59239;SDS011;45010;53.640;10.578;2023-03-02T09:27:32;2.63;;;1.00;;
59239;SDS011;45010;53.640;10.578;2023-03-02T09:30:32;1.92;;;0.77;;
59239;SDS011;45010;53.640;10.578;2023-03-02T09:33:32;2.15;;;0.90;;
59239;SDS011;45010;53.640;10.578;2023-03-02T09:36:33;2.80;;;1.05;;
59239;SDS011;45010;53.640;10.578;2023-03-02T09:39:34;3.00;;;1.00;;
59239;SDS011;45010;53.640;10.578;2023-03-02T09:46:02;2.83;;;0.70;;
59239;SDS011;45010;53.640;10.578;2023-03-02T09:49:24;3.10;;;0.80;;
59239;SDS011;45010;53.640;10.578;2023-03-02T09:56:44;1.77;;;0.80;;
59239;SDS011;45010;53.640;10.578;2023-03-02T09:59:52;4.03;;;0.80;;
59239;SDS011;45010;53.640;10.578;2023-03-02T10:02:57;2.13;;;0.70;;
59239;SDS011;45010;53.640;10.578;2023-03-02T10:06:00;2.20;;;0.93;;
59239;SDS011;45010;53.640;10.578;2023-03-02T10:09:01;2.90;;;0.93;;
59239;SDS011;45010;53.640;10.578;2023-03-02T10:15:34;2.65;;;0.73;;
59239;SDS011;45010;53.640;10.578;2023-03-02T10:22:18;2.13;;;0.80;;
59239;SDS011;45010;53.640;10.578;2023-03-02T10:25:30;0.68;;;0.50;;
59239;SDS011;45010;53.640;10.578;2023-03-02T10:28:46;1.75;;;0.60;;
59239;SDS011;45010;53.640;10.578;2023-03-02T10:31:49;1.85;;;0.75;;
59239;SDS011;45010;53.640;10.578;2023-03-02T10:34:57;1.40;;;0.75;;
59239;SDS011;45010;53.640;10.578;2023-03-02T10:38:15;1.40;;;0.75;;
59239;SDS011;45010;53.640;10.578;2023-03-02T10:41:34;2.22;;;0.82;;
59239;SDS011;45010;53.640;10.578;2023-03-02T10:44:39;1.83;;;0.60;;
59239;SDS011;45010;53.640;10.578;2023-03-02T10:47:44;1.35;;;0.60;;
59239;SDS011;45010;53.640;10.578;2023-03-02T10:50:44;1.73;;;0.85;;
59239;SDS011;45010;53.640;10.578;2023-03-02T10:54:02;1.35;;;0.60;;
59239;SDS011;45010;53.640;10.578;2023-03-02T10:57:25;1.75;;;0.70;;
59239;SDS011;45010;53.640;10.578;2023-03-02T11:00:36;1.48;;;0.80;;
59239;SDS011;45010;53.640;10.578;2023-03-02T11:03:37;1.48;;;0.73;;
59239;SDS011;45010;53.640;10.578;2023-03-02T11:06:38;1.40;;;0.60;;
59239;SDS011;45010;53.640;10.578;2023-03-02T11:09:38;0.95;;;0.52;;
59239;SDS011;45010;53.640;10.578;2023-03-02T11:12:43;1.52;;;0.80;;
59239;SDS011;45010;53.640;10.578;2023-03-02T11:15:46;0.90;;;0.70;;
59239;SDS011;45010;53.640;10.578;2023-03-02T11:18:50;1.25;;;0.77;;
59239;SDS011;45010;53.640;10.578;2023-03-02T11:21:56;1.52;;;0.85;;
59239;SDS011;45010;53.640;10.578;2023-03-02T11:25:02;1.55;;;0.70;;
59239;SDS011;45010;53.640;10.578;2023-03-02T11:28:09;2.03;;;0.75;;
59239;SDS011;45010;53.640;10.578;2023-03-02T11:31:21;0.93;;;0.70;;
59239;SDS011;45010;53.640;10.578;2023-03-02T11:34:27;1.05;;;0.70;;
59239;SDS011;45010;53.640;10.578;2023-03-02T11:37:39;1.38;;;0.95;;
59239;SDS011;45010;53.640;10.578;2023-03-02T11:41:08;1.75;;;1.00;;
59239;SDS011;45010;53.640;10.578;2023-03-02T11:44:18;1.17;;;0.85;;
59239;SDS011;45010;53.640;10.578;2023-03-02T11:47:20;1.45;;;0.90;;
59239;SDS011;45010;53.640;10.578;2023-03-02T11:50:21;1.13;;;0.93;;
59239;SDS011;45010;53.640;10.578;2023-03-02T11:53:22;0.93;;;0.75;;
59239;SDS011;45010;53.640;10.578;2023-03-02T11:56:44;0.60;;;0.60;;
59239;SDS011;45010;53.640;10.578;2023-03-02T11:59:45;0.88;;;0.77;;
59239;SDS011;45010;53.640;10.578;2023-03-02T12:02:56;2.72;;;1.40;;
59239;SDS011;45010;53.640;10.578;2023-03-02T12:06:02;2.08;;;1.27;;
59239;SDS011;45010;53.640;10.578;2023-03-02T12:09:30;1.98;;;1.30;;
59239;SDS011;45010;53.640;10.578;2023-03-02T12:15:37;4.18;;;2.28;;
59239;SDS011;45010;53.640;10.578;2023-03-02T12:18:44;2.22;;;1.60;;
59239;SDS011;45010;53.640;10.578;2023-03-02T12:28:25;2.97;;;2.03;;
59239;SDS011;45010;53.640;10.578;2023-03-02T12:31:41;2.45;;;1.73;;
59239;SDS011;45010;53.640;10.578;2023-03-02T12:34:52;2.13;;;1.83;;
59239;SDS011;45010;53.640;10.578;2023-03-02T12:37:58;4.95;;;1.80;;
59239;SDS011;45010;53.640;10.578;2023-03-02T12:41:23;2.42;;;1.50;;
59239;SDS011;45010;53.640;10.578;2023-03-02T12:48:27;2.15;;;1.35;;
59239;SDS011;45010;53.640;10.578;2023-03-02T12:55:00;3.72;;;1.10;;
59239;SDS011;45010;53.640;10.578;2023-03-02T12:58:14;2.13;;;1.30;;
59239;SDS011;45010;53.640;10.578;2023-03-02T13:01:24;1.30;;;1.20;;
59239;SDS011;45010;53.640;10.578;2023-03-02T13:04:26;3.15;;;1.40;;
59239;SDS011;45010;53.640;10.578;2023-03-02T13:07:28;1.75;;;1.00;;
59239;SDS011;45010;53.640;10.578;2023-03-02T13:10:40;1.40;;;1.02;;
59239;SDS011;45010;53.640;10.578;2023-03-02T13:13:43;1.73;;;1.10;;
59239;SDS011;45010;53.640;10.578;2023-03-02T13:16:51;2.72;;;1.13;;
59239;SDS011;45010;53.640;10.578;2023-03-02T13:19:53;1.25;;;1.08;;
59239;SDS011;45010;53.640;10.578;2023-03-02T13:22:54;2.45;;;1.05;;
59239;SDS011;45010;53.640;10.578;2023-03-02T13:25:56;1.15;;;1.00;;
59239;SDS011;45010;53.640;10.578;2023-03-02T13:29:05;3.05;;;1.15;;
59239;SDS011;45010;53.640;10.578;2023-03-02T13:32:19;2.40;;;1.00;;
59239;SDS011;45010;53.640;10.578;2023-03-02T13:35:23;1.45;;;1.00;;
59239;SDS011;45010;53.640;10.578;2023-03-02T13:38:27;2.90;;;1.20;;
59239;SDS011;45010;53.640;10.578;2023-03-02T13:41:32;2.03;;;0.90;;
59239;SDS011;45010;53.640;10.578;2023-03-02T13:44:35;1.20;;;1.10;;
59239;SDS011;45010;53.640;10.578;2023-03-02T13:47:35;1.63;;;1.30;;
59239;SDS011;45010;53.640;10.578;2023-03-02T13:50:35;2.42;;;1.10;;
59239;SDS011;45010;53.640;10.578;2023-03-02T13:53:35;1.20;;;1.00;;
59239;SDS011;45010;53.640;10.578;2023-03-02T13:56:37;3.08;;;0.90;;
59239;SDS011;45010;53.640;10.578;2023-03-02T13:59:42;8.98;;;1.30;;
59239;SDS011;45010;53.640;10.578;2023-03-02T14:02:43;1.23;;;0.93;;
59239;SDS011;45010;53.640;10.578;2023-03-02T14:05:43;1.33;;;0.80;;
59239;SDS011;45010;53.640;10.578;2023-03-02T14:08:44;1.70;;;0.82;;
59239;SDS011;45010;53.640;10.578;2023-03-02T14:11:46;1.52;;;1.00;;
59239;SDS011;45010;53.640;10.578;2023-03-02T14:14:51;1.60;;;0.90;;
59239;SDS011;45010;53.640;10.578;2023-03-02T14:17:53;1.15;;;0.93;;
59239;SDS011;45010;53.640;10.578;2023-03-02T14:20:53;2.17;;;0.90;;
59239;SDS011;45010;53.640;10.578;2023-03-02T14:23:55;1.30;;;1.00;;
59239;SDS011;45010;53.640;10.578;2023-03-02T14:26:57;1.10;;;1.00;;
59239;SDS011;45010;53.640;10.578;2023-03-02T14:29:58;1.20;;;0.95;;
59239;SDS011;45010;53.640;10.578;2023-03-02T14:32:59;1.40;;;1.10;;
59239;SDS011;45010;53.640;10.578;2023-03-02T14:36:00;1.38;;;0.93;;
59239;SDS011;45010;53.640;10.578;2023-03-02T14:39:01;1.50;;;1.00;;
59239;SDS011;45010;53.640;10.578;2023-03-02T14:42:05;1.10;;;1.00;;
59239;SDS011;45010;53.640;10.578;2023-03-02T14:45:10;1.02;;;0.73;;
59239;SDS011;45010;53.640;10.578;2023-03-02T14:48:10;1.10;;;0.68;;
59239;SDS011;45010;53.640;10.578;2023-03-02T14:51:21;1.55;;;1.15;;
59239;SDS011;45010;53.640;10.578;2023-03-02T14:54:24;1.80;;;1.00;;
59239;SDS011;45010;53.640;10.578;2023-03-02T14:57:26;2.05;;;0.82;;
59239;SDS011;45010;53.640;10.578;2023-03-02T15:00:28;2.30;;;1.08;;
59239;SDS011;45010;53.640;10.578;2023-03-02T15:03:28;1.67;;;1.00;;
59239;SDS011;45010;53.640;10.578;2023-03-02T15:06:29;1.13;;;0.73;;
59239;SDS011;45010;53.640;10.578;2023-03-02T15:09:31;0.90;;;0.80;;
59239;SDS011;45010;53.640;10.578;2023-03-02T15:12:32;0.80;;;0.77;;
59239;SDS011;45010;53.640;10.578;2023-03-02T15:15:32;1.58;;;0.98;;
59239;SDS011;45010;53.640;10.578;2023-03-02T15:18:33;1.65;;;1.15;;
59239;SDS011;45010;53.640;10.578;2023-03-02T15:21:34;4.28;;;1.20;;
59239;SDS011;45010;53.640;10.578;2023-03-02T15:24:35;4.45;;;1.00;;
59239;SDS011;45010;53.640;10.578;2023-03-02T15:27:35;1.70;;;1.00;;
59239;SDS011;45010;53.640;10.578;2023-03-02T15:30:35;2.13;;;1.25;;
59239;SDS011;45010;53.640;10.578;2023-03-02T15:33:36;2.55;;;0.90;;
59239;SDS011;45010;53.640;10.578;2023-03-02T15:36:36;1.23;;;0.98;;
59239;SDS011;45010;53.640;10.578;2023-03-02T15:39:37;2.17;;;1.02;;
59239;SDS011;45010;53.640;10.578;2023-03-02T15:42:38;2.15;;;0.90;;
59239;SDS011;45010;53.640;10.578;2023-03-02T15:45:42;1.20;;;0.85;;
59239;SDS011;45010;53.640;10.578;2023-03-02T15:48:45;1.52;;;0.77;;
59239;SDS011;45010;53.640;10.578;2023-03-02T15:51:45;1.10;;;0.98;;
59239;SDS011;45010;53.640;10.578;2023-03-02T15:54:45;1.50;;;1.00;;
59239;SDS011;45010;53.640;10.578;2023-03-02T15:57:46;2.17;;;0.98;;
59239;SDS011;45010;53.640;10.578;2023-03-02T16:00:49;1.25;;;1.00;;
59239;SDS011;45010;53.640;10.578;2023-03-02T16:03:52;1.13;;;0.93;;
59239;SDS011;45010;53.640;10.578;2023-03-02T16:06:53;1.30;;;0.82;;
59239;SDS011;45010;53.640;10.578;2023-03-02T16:09:54;1.15;;;0.80;;
59239;SDS011;45010;53.640;10.578;2023-03-02T16:12:54;1.10;;;0.80;;
59239;SDS011;45010;53.640;10.578;2023-03-02T16:15:55;0.98;;;0.85;;
59239;SDS011;45010;53.640;10.578;2023-03-02T16:18:56;1.23;;;0.90;;
59239;SDS011;45010;53.640;10.578;2023-03-02T16:21:57;0.70;;;0.70;;
59239;SDS011;45010;53.640;10.578;2023-03-02T16:24:57;1.23;;;0.80;;
59239;SDS011;45010;53.640;10.578;2023-03-02T16:27:57;1.00;;;0.70;;
59239;SDS011;45010;53.640;10.578;2023-03-02T16:31:04;0.85;;;0.73;;
59239;SDS011;45010;53.640;10.578;2023-03-02T16:34:07;1.33;;;1.02;;
59239;SDS011;45010;53.640;10.578;2023-03-02T16:37:08;0.80;;;0.80;;
59239;SDS011;45010;53.640;10.578;2023-03-02T16:40:08;0.75;;;0.75;;
59239;SDS011;45010;53.640;10.578;2023-03-02T16:43:09;1.27;;;0.77;;
59239;SDS011;45010;53.640;10.578;2023-03-02T16:46:10;0.80;;;0.80;;
59239;SDS011;45010;53.640;10.578;2023-03-02T16:49:10;0.98;;;0.65;;
59239;SDS011;45010;53.640;10.578;2023-03-02T16:52:12;1.20;;;0.90;;
59239;SDS011;45010;53.640;10.578;2023-03-02T16:55:13;1.10;;;0.75;;
59239;SDS011;45010;53.640;10.578;2023-03-02T16:58:16;0.85;;;0.70;;
59239;SDS011;45010;53.640;10.578;2023-03-02T17:01:18;0.80;;;0.80;;
59239;SDS011;45010;53.640;10.578;2023-03-02T17:04:19;1.23;;;0.93;;
59239;SDS011;45010;53.640;10.578;2023-03-02T17:07:20;0.80;;;0.80;;
59239;SDS011;45010;53.640;10.578;2023-03-02T17:10:21;1.15;;;0.80;;
59239;SDS011;45010;53.640;10.578;2023-03-02T17:13:21;0.73;;;0.70;;
59239;SDS011;45010;53.640;10.578;2023-03-02T17:16:22;2.85;;;1.20;;
59239;SDS011;45010;53.640;10.578;2023-03-02T17:19:24;2.42;;;1.10;;
59239;SDS011;45010;53.640;10.578;2023-03-02T17:22:25;33.58;;;7.75;;
59239;SDS011;45010;53.640;10.578;2023-03-02T17:25:26;17.63;;;5.10;;
59239;SDS011;45010;53.640;10.578;2023-03-02T17:28:26;11.63;;;4.38;;
59239;SDS011;45010;53.640;10.578;2023-03-02T17:31:27;13.15;;;3.20;;
59239;SDS011;45010;53.640;10.578;2023-03-02T17:34:27;9.25;;;2.53;;
59239;SDS011;45010;53.640;10.578;2023-03-02T17:37:30;7.45;;;2.03;;
59239;SDS011;45010;53.640;10.578;2023-03-02T17:40:30;6.60;;;2.35;;
59239;SDS011;45010;53.640;10.578;2023-03-02T17:43:34;7.60;;;2.40;;
59239;SDS011;45010;53.640;10.578;2023-03-02T17:46:36;6.00;;;1.95;;
59239;SDS011;45010;53.640;10.578;2023-03-02T17:49:37;5.60;;;2.00;;
59239;SDS011;45010;53.640;10.578;2023-03-02T17:52:39;5.13;;;1.70;;
59239;SDS011;45010;53.640;10.578;2023-03-02T17:55:40;4.35;;;2.10;;
59239;SDS011;45010;53.640;10.578;2023-03-02T17:58:40;5.25;;;1.60;;
59239;SDS011;45010;53.640;10.578;2023-03-02T18:01:40;4.60;;;2.00;;
59239;SDS011;45010;53.640;10.578;2023-03-02T18:04:42;5.22;;;1.77;;
59239;SDS011;45010;53.640;10.578;2023-03-02T18:07:44;6.15;;;1.83;;
59239;SDS011;45010;53.640;10.578;2023-03-02T18:10:45;7.28;;;1.98;;
59239;SDS011;45010;53.640;10.578;2023-03-02T18:13:46;4.43;;;1.70;;
59239;SDS011;45010;53.640;10.578;2023-03-02T18:16:47;2.97;;;1.77;;
59239;SDS011;45010;53.640;10.578;2023-03-02T18:19:47;3.08;;;1.30;;
59239;SDS011;45010;53.640;10.578;2023-03-02T18:22:48;3.03;;;1.20;;
59239;SDS011;45010;53.640;10.578;2023-03-02T18:25:48;4.70;;;1.67;;
59239;SDS011;45010;53.640;10.578;2023-03-02T18:28:49;2.70;;;1.23;;
59239;SDS011;45010;53.640;10.578;2023-03-02T18:31:49;4.47;;;1.45;;
59239;SDS011;45010;53.640;10.578;2023-03-02T18:34:51;3.13;;;1.60;;
59239;SDS011;45010;53.640;10.578;2023-03-02T18:37:51;2.30;;;1.40;;
59239;SDS011;45010;53.640;10.578;2023-03-02T18:40:52;3.47;;;1.52;;